In Rescue
 
Open Full Screen Window  High Contrast Mode
Wind Gusting 00 knots
03
December 15, 2019 6:41 PM CST
Weather Information
Wind Direction
  190 °
Wind Speed
  03 kt (3 mph)
Wind Gust
  00 kt (0 mph)
Altimeter
30.07 in
Visibility
10 SM
Temperature
-12° C
10° F
Dewpoint
-14° C
F
Humidity
85%
1hr Rain Fall
00.00 in.
24hr Rain Fall
00.00 in.
Sky Condition
Missing
VFR

METAR KLVN 160041Z AUTO 19003KT 10SM M12/M14 A3007 RMK AO2

FAA Disclaimer: The data displayed is for advisory purposes only and is not to be used for flight planning or operations.
Missing Cloud Data